KHZY

Northeast Ohio Regional Airport

Ashtabula, Ohio, USA
METAR KHZY 230953Z AUTO 19006KT 10SM SCT095 06/04 A2997 RMK AO2 SLP151 T00560039
Observed Flight Rules
Oct-23 @ 09:53 UTC (41 minutes ago) Visual Flight Rules
Wind Visibility Clouds
190° at 6 knots 10 miles
  • Scattered at 9,500' AGL
Temperatures Readings
Current 6°C / 43°F
Dewpoint 4°C / 39°F
Humidity 87%
Altimeter 29.97" Hg
Pressure 1015.1 hPa
Elevation 276
METAR KHZY 230953Z AUTO 19006KT 10SM SCT095 06/04 A2997 RMK AO2 SLP151 T00560039
Observed Flight Rules
Oct-23 @ 09:53 UTC
(41 minutes ago)
VFR
Wind Visibility
190° at 6 knots 10 miles
Clouds
  • Scattered at 9,500' AGL
Temperature Dewpoint
6°C / 43°F 4°C / 39°F
Humidity Altimeter Pressure
87% 29.97" Hg 1015.1 hPa